Time;durP1;ratioP1;P1;durP2;ratioP2;P2;SDS_P1;SDS_P2;PMS_P1;PMS_P2;Temp;Humidity;BMP_temperature;BMP_pressure;BME280_temperature;BME280_humidity;BME280_pressure;Samples;Min_cycle;Max_cycle;Signal;HPM_P1;HPM_P2
2021/03/24 00:00:10;;;;;;;27.27;18.55;;;;;;;3.24;72.14;100367.09;4993554;28;20559;-76
2021/03/24 00:02:36;;;;;;;23.90;15.30;;;;;;;3.24;71.85;100364.50;4995931;28;20043;-75
2021/03/24 00:05:02;;;;;;;27.02;17.17;;;;;;;3.29;72.00;100373.13;4996030;28;20045;-76
2021/03/24 00:07:28;;;;;;;32.42;21.63;;;;;;;3.28;71.80;100373.16;4996660;28;20493;-74
2021/03/24 00:09:53;;;;;;;30.38;17.38;;;;;;;3.23;71.96;100374.06;4996065;28;20121;-76
2021/03/24 00:12:18;;;;;;;24.85;14.95;;;;;;;3.28;71.69;100375.78;4997179;28;20042;-75
2021/03/24 00:14:44;;;;;;;31.67;19.63;;;;;;;3.25;71.67;100373.16;4996577;28;20038;-75
2021/03/24 00:17:09;;;;;;;24.85;14.00;;;;;;;3.28;71.65;100375.78;4995771;28;20494;-76
2021/03/24 00:19:34;;;;;;;22.40;13.75;;;;;;;3.29;71.64;100373.13;4996147;28;20112;-75
2021/03/24 00:22:00;;;;;;;24.17;16.98;;;;;;;3.34;71.39;100373.94;5009419;28;20037;-75
2021/03/24 00:24:25;;;;;;;22.45;13.68;;;;;;;3.37;71.26;100373.03;4994376;28;20406;-75
2021/03/24 00:26:50;;;;;;;22.58;15.35;;;;;;;3.42;71.17;100366.03;4993872;28;20036;-74
2021/03/24 00:29:16;;;;;;;24.63;15.57;;;;;;;3.43;70.99;100371.25;4995116;28;20046;-75
2021/03/24 00:31:41;;;;;;;23.10;14.85;;;;;;;3.44;71.18;100372.97;4995325;28;20471;-75
2021/03/24 00:34:06;;;;;;;28.33;17.20;;;;;;;3.42;70.75;100366.03;4994664;28;20053;-75
2021/03/24 00:36:32;;;;;;;22.35;15.43;;;;;;;3.43;71.24;100368.66;4995072;28;20042;-74
2021/03/24 00:38:57;;;;;;;25.95;17.13;;;;;;;3.44;71.02;100364.28;4975782;28;20042;-75
2021/03/24 00:41:22;;;;;;;21.90;15.45;;;;;;;3.43;71.02;100368.66;4994400;28;20217;-75
2021/03/24 00:43:48;;;;;;;29.15;18.45;;;;;;;3.41;71.29;100364.31;4993983;28;20513;-75
2021/03/24 00:46:13;;;;;;;26.75;15.15;;;;;;;3.41;71.24;100361.72;4992974;28;20039;-75
2021/03/24 00:48:39;;;;;;;24.95;14.95;;;;;;;3.40;71.53;100367.81;4993642;28;20122;-76
2021/03/24 00:51:06;;;;;;;21.92;14.65;;;;;;;3.41;71.43;100367.78;4992369;28;20045;-75
2021/03/24 00:53:32;;;;;;;27.85;15.68;;;;;;;3.45;71.27;100366.03;4992256;28;20038;-76
2021/03/24 00:55:57;;;;;;;30.83;16.17;;;;;;;3.32;71.64;100354.84;4992693;28;20034;-75
2021/03/24 00:58:23;;;;;;;23.90;14.48;;;;;;;3.33;71.74;100361.81;4993223;28;20035;-75
2021/03/24 01:00:50;;;;;;;21.77;13.85;;;;;;;3.34;71.48;100366.13;4991892;28;20089;-76
2021/03/24 01:03:16;;;;;;;19.10;13.88;;;;;;;3.38;71.24;100365.22;5006789;28;20068;-75
2021/03/24 01:05:43;;;;;;;18.88;12.88;;;;;;;3.42;71.22;100363.44;4992302;28;20038;-75
2021/03/24 01:08:13;;;;;;;17.80;12.07;;;;;;;3.42;71.32;100356.50;4990655;28;20402;-75
2021/03/24 01:10:40;;;;;;;19.08;12.40;;;;;;;3.41;71.00;100359.97;4997244;28;20406;-75
2021/03/24 01:13:06;;;;;;;26.05;15.85;;;;;;;3.31;71.52;100362.69;4990417;28;20045;-74
2021/03/24 01:15:33;;;;;;;22.77;15.20;;;;;;;3.27;71.61;100358.38;4992402;28;20034;-75
2021/03/24 01:17:58;;;;;;;24.88;15.80;;;;;;;3.26;72.17;100361.88;4990456;28;20121;-74
2021/03/24 01:20:28;;;;;;;22.10;14.23;;;;;;;3.27;71.85;100367.06;4991828;28;20062;-74
2021/03/24 01:22:55;;;;;;;19.45;13.68;;;;;;;3.28;71.54;100368.81;4991380;28;20125;-75
2021/03/24 01:25:21;;;;;;;24.75;14.55;;;;;;;3.31;71.59;100367.91;5009305;28;20541;-75
2021/03/24 01:27:47;;;;;;;22.75;12.48;;;;;;;3.32;71.41;100360.06;4996637;28;20031;-75
2021/03/24 01:30:13;;;;;;;26.25;15.20;;;;;;;3.30;71.41;100366.16;4995659;28;20053;-75
2021/03/24 01:32:39;;;;;;;20.80;14.07;;;;;;;3.33;71.28;100361.81;4991579;28;20036;-76
2021/03/24 01:35:07;;;;;;;28.55;15.80;;;;;;;3.30;71.43;100354.03;4990772;28;20034;-74
2021/03/24 01:37:32;;;;;;;25.35;14.27;;;;;;;3.31;71.44;100353.13;4990276;28;20045;-75
2021/03/24 01:39:58;;;;;;;23.10;14.55;;;;;;;3.30;71.62;100350.53;4990162;28;20022;-75
2021/03/24 01:42:23;;;;;;;33.47;17.15;;;;;;;3.20;71.82;100350.66;4990942;28;20030;-75
2021/03/24 01:45:06;;;;;;;22.23;15.05;;;;;;;3.18;71.75;100354.16;4990702;28;20034;-76
2021/03/24 01:47:33;;;;;;;23.05;14.60;;;;;;;3.13;71.88;100351.59;4989896;28;20060;-76
2021/03/24 01:49:58;;;;;;;25.20;16.15;;;;;;;3.10;71.96;100348.13;5004575;28;20030;-76
2021/03/24 01:52:25;;;;;;;28.77;16.88;;;;;;;3.07;72.51;100349.03;4990612;28;20034;-75
2021/03/24 01:54:51;;;;;;;26.33;15.70;;;;;;;3.05;72.26;100348.16;4990704;28;20457;-75
2021/03/24 01:57:24;;;;;;;32.60;16.00;;;;;;;3.05;72.07;100350.78;4990419;28;20035;-74
2021/03/24 01:59:55;;;;;;;30.98;19.15;;;;;;;2.99;73.31;100345.63;4988942;28;20034;-74
2021/03/24 02:02:31;;;;;;;22.65;15.95;;;;;;;2.94;72.58;100357.84;4969225;28;20030;-75
2021/03/24 02:04:56;;;;;;;26.02;16.35;;;;;;;2.98;72.65;100355.19;4986374;28;20126;-75
2021/03/24 02:07:41;;;;;;;26.88;18.13;;;;;;;2.95;72.65;100351.75;4989552;28;20401;-76
2021/03/24 02:10:19;;;;;;;21.73;13.50;;;;;;;2.97;72.85;100348.25;4989720;28;20084;-74
2021/03/24 02:13:08;;;;;;;23.20;14.25;;;;;;;3.05;73.14;100349.91;4989026;28;20048;-75
2021/03/24 02:15:42;;;;;;;28.52;17.17;;;;;;;3.06;72.16;100344.72;4988258;28;20042;-74
2021/03/24 02:18:10;;;;;;;32.25;17.02;;;;;;;3.13;72.95;100348.13;4988406;28;20041;-74
2021/03/24 02:20:36;;;;;;;25.17;15.43;;;;;;;3.23;73.07;100339.34;4988524;28;20602;-74
2021/03/24 02:23:36;;;;;;;24.23;14.77;;;;;;;3.31;72.63;100337.50;4990495;28;20058;-75
2021/03/24 02:26:16;;;;;;;25.92;17.02;;;;;;;3.40;72.68;100337.41;5003866;28;20026;-75
2021/03/24 02:28:44;;;;;;;20.20;14.45;;;;;;;3.49;71.89;100338.19;4988927;28;20505;-75
2021/03/24 02:31:13;;;;;;;20.83;14.63;;;;;;;3.59;72.41;100340.69;4989614;28;20046;-75
2021/03/24 02:33:43;;;;;;;23.10;16.02;;;;;;;3.67;71.92;100335.38;4988648;28;20054;-75
2021/03/24 02:36:13;;;;;;;27.55;15.15;;;;;;;3.74;71.73;100334.41;4989795;28;20030;-75
2021/03/24 02:38:42;;;;;;;24.55;16.38;;;;;;;3.78;71.63;100333.47;4990258;28;20068;-75
2021/03/24 02:41:08;;;;;;;27.65;16.80;;;;;;;3.83;71.46;100330.81;4982918;28;20085;-75
2021/03/24 02:43:35;;;;;;;30.13;17.02;;;;;;;3.85;71.08;100331.66;4992718;28;20093;-75
2021/03/24 02:46:06;;;;;;;26.23;16.48;;;;;;;3.86;71.07;100325.53;4995055;28;20038;-74
2021/03/24 02:48:35;;;;;;;27.33;16.50;;;;;;;3.90;71.01;100322.03;4995220;28;20034;-74
2021/03/24 02:51:11;;;;;;;32.92;17.20;;;;;;;3.91;71.50;100323.75;4994785;28;20494;-74
2021/03/24 02:53:38;;;;;;;;;;;;;;;3.94;71.23;100328.06;4995561;28;20049;-76
2021/03/24 02:56:06;;;;;;;31.10;15.80;;;;;;;3.95;70.90;100327.19;5007018;28;20285;-75
2021/03/24 02:58:32;;;;;;;25.25;16.00;;;;;;;3.96;71.11;100321.06;4993437;28;20042;-74
2021/03/24 03:00:59;;;;;;;26.85;16.13;;;;;;;3.96;70.82;100310.63;4976905;28;20041;-75
2021/03/24 03:03:36;;;;;;;29.55;17.35;;;;;;;3.99;70.49;100313.22;5002544;28;20053;-74
2021/03/24 03:06:05;;;;;;;24.58;16.85;;;;;;;3.98;70.71;100309.72;5001135;28;20053;-75
2021/03/24 03:08:37;;;;;;;26.10;17.83;;;;;;;4.00;70.91;100307.13;4994207;28;20042;-75
2021/03/24 03:11:21;;;;;;;25.98;16.35;;;;;;;3.97;70.87;100308.03;5014559;28;20038;-75
2021/03/24 03:13:56;;;;;;;22.08;15.43;;;;;;;3.97;70.89;100302.81;5000937;28;20041;-75
2021/03/24 03:16:38;;;;;;;25.42;18.33;;;;;;;3.96;71.31;100305.41;4978250;28;20125;-75
2021/03/24 03:19:22;;;;;;;27.95;16.60;;;;;;;3.97;71.67;100308.03;4993801;28;20102;-75
2021/03/24 03:21:52;;;;;;;25.63;16.13;;;;;;;3.96;71.57;100308.88;4993793;28;20034;-74
2021/03/24 03:24:22;;;;;;;24.30;17.63;;;;;;;3.99;71.47;100302.78;4992408;28;20615;-75
2021/03/24 03:26:52;;;;;;;32.20;16.30;;;;;;;3.98;71.81;100307.13;4991906;28;20034;-74
2021/03/24 03:29:20;;;;;;;25.33;15.52;;;;;;;3.98;71.51;100299.28;4992863;28;20509;-75
2021/03/24 03:31:49;;;;;;;31.67;18.92;;;;;;;3.95;71.17;100295.88;4993277;28;20046;-75
2021/03/24 03:34:18;;;;;;;28.00;17.90;;;;;;;3.92;71.50;100306.38;4992064;28;20058;-74
2021/03/24 03:36:47;;;;;;;27.50;18.52;;;;;;;3.88;71.68;100306.38;4991755;28;20177;-73
2021/03/24 03:39:18;;;;;;;33.40;18.60;;;;;;;3.86;71.25;100308.19;4991243;28;20066;-75
2021/03/24 03:41:45;;;;;;;28.02;16.92;;;;;;;3.83;71.19;100310.81;4992801;28;20046;-74
2021/03/24 03:44:12;;;;;;;26.80;15.73;;;;;;;3.81;71.37;100312.56;4992266;28;20042;-74
2021/03/24 03:46:43;;;;;;;26.45;17.25;;;;;;;3.78;71.15;100311.75;4992064;28;20513;-74
2021/03/24 03:49:08;;;;;;;32.50;19.52;;;;;;;3.74;71.22;100315.28;4992359;28;20042;-74
2021/03/24 03:52:00;;;;;;;35.15;20.48;;;;;;;3.67;71.36;100309.28;4991160;28;20042;-74
2021/03/24 03:54:35;;;;;;;32.78;22.17;;;;;;;3.55;71.72;100307.69;4992604;28;20045;-74
2021/03/24 03:57:11;;;;;;;34.13;20.33;;;;;;;3.47;72.11;100314.75;4992498;28;20045;-74
2021/03/24 03:59:58;;;;;;;25.65;17.52;;;;;;;3.42;71.97;100314.81;4991861;28;20052;-74
2021/03/24 04:02:36;;;;;;;37.65;21.25;;;;;;;3.33;72.54;100309.69;5003603;28;20505;-75
2021/03/24 04:05:06;;;;;;;33.45;19.55;;;;;;;3.23;72.65;100308.06;5006099;28;20113;-74
2021/03/24 04:07:44;;;;;;;30.33;17.90;;;;;;;3.18;72.67;100317.69;4992055;28;20375;-75
2021/03/24 04:10:11;;;;;;;27.55;15.88;;;;;;;3.11;72.81;100314.25;5006623;28;20121;-74
2021/03/24 04:12:39;;;;;;;33.03;20.95;;;;;;;3.08;72.77;100319.50;4973468;28;20134;-73
2021/03/24 04:15:14;;;;;;;29.13;17.20;;;;;;;3.10;72.74;100320.38;4989868;28;20066;-75
2021/03/24 04:17:49;;;;;;;27.88;16.83;;;;;;;3.11;72.54;100319.47;4990715;28;20133;-75
2021/03/24 04:20:17;;;;;;;36.05;20.38;;;;;;;3.09;72.59;100320.38;4991713;28;20031;-75
2021/03/24 04:22:46;;;;;;;34.67;16.45;;;;;;;3.04;72.68;100316.94;4975057;28;20086;-75
2021/03/24 04:25:24;;;;;;;40.30;21.17;;;;;;;2.92;73.12;100318.78;4994389;28;20403;-75
2021/03/24 04:27:52;;;;;;;38.75;23.17;;;;;;;2.81;73.54;100320.63;4995266;28;20038;-76
2021/03/24 04:30:24;;;;;;;34.67;18.58;;;;;;;2.73;73.77;100325.03;4994897;28;20784;-75
2021/03/24 04:32:49;;;;;;;36.70;20.15;;;;;;;2.70;73.63;100323.31;4994686;28;20084;-75
2021/03/24 04:35:20;;;;;;;35.17;20.33;;;;;;;2.61;73.87;100320.81;4991732;28;20042;-75
2021/03/24 04:37:50;;;;;;;34.45;20.65;;;;;;;2.57;74.23;100325.16;4991816;28;20034;-74
2021/03/24 04:40:25;;;;;;;36.97;19.48;;;;;;;2.57;73.92;100326.91;4990115;28;20117;-74
2021/03/24 04:43:00;;;;;;;34.83;21.23;;;;;;;2.57;74.40;100321.69;4991142;28;20548;-75
2021/03/24 04:45:44;;;;;;;39.33;22.58;;;;;;;2.54;74.37;100324.34;4992025;28;20038;-74
2021/03/24 04:48:16;;;;;;;38.92;21.33;;;;;;;2.51;74.14;100319.13;5006297;28;20031;-74
2021/03/24 04:50:53;;;;;;;35.85;19.02;;;;;;;2.49;74.31;100324.38;4989732;28;20034;-74
2021/03/24 04:53:20;;;;;;;49.08;23.13;;;;;;;2.44;74.25;100325.28;4990807;28;20046;-75
2021/03/24 04:55:47;;;;;;;32.17;17.33;;;;;;;2.38;75.01;100320.97;4991749;28;20076;-75
2021/03/24 04:58:35;;;;;;;28.63;17.73;;;;;;;2.39;74.50;100322.72;4990737;28;20501;-76
2021/03/24 05:01:21;;;;;;;34.50;21.55;;;;;;;2.33;74.84;100320.13;4991603;28;20113;-75
2021/03/24 05:03:49;;;;;;;33.97;20.58;;;;;;;2.25;74.83;100322.78;4990475;28;20050;-76
2021/03/24 05:06:24;;;;;;;41.85;22.52;;;;;;;2.21;75.32;100315.88;4980419;28;20498;-76
2021/03/24 05:08:49;;;;;;;39.92;22.60;;;;;;;2.21;75.59;100330.63;4972654;28;20037;-73
2021/03/24 05:11:23;;;;;;;38.17;22.92;;;;;;;2.21;75.95;100325.44;4971043;28;20498;-76
2021/03/24 05:14:01;;;;;;;34.30;18.27;;;;;;;2.23;75.82;100323.69;4971608;28;20149;-75
2021/03/24 05:16:36;;;;;;;37.20;20.83;;;;;;;2.26;75.79;100332.31;4970402;28;20043;-75
2021/03/24 05:19:02;;;;;;;35.35;22.80;;;;;;;2.28;75.80;100327.97;4992378;28;20034;-76
2021/03/24 05:21:51;;;;;;;40.10;22.30;;;;;;;2.22;75.04;100330.63;4992215;28;20115;-76
2021/03/24 05:24:21;;;;;;;32.05;20.70;;;;;;;2.23;75.78;100321.94;4990821;28;20092;-74
2021/03/24 05:27:01;;;;;;;40.67;24.20;;;;;;;2.26;75.34;100324.50;4991227;28;20405;-74
2021/03/24 05:29:33;;;;;;;40.17;22.75;;;;;;;2.21;75.38;100334.09;4986686;28;20043;-74
2021/03/24 05:32:00;;;;;;;36.13;22.23;;;;;;;2.28;75.44;100340.97;4991483;28;20489;-74
2021/03/24 05:34:32;;;;;;;38.30;20.50;;;;;;;2.33;75.26;100333.16;4991001;28;20034;-73
2021/03/24 05:37:00;;;;;;;37.72;24.27;;;;;;;2.32;74.90;100334.03;4991916;28;20034;-75
2021/03/24 05:39:27;;;;;;;37.67;21.73;;;;;;;2.38;75.13;100343.53;4989627;28;20508;-73
2021/03/24 05:42:19;;;;;;;34.92;18.85;;;;;;;2.40;74.69;100339.19;4989630;28;20122;-74
2021/03/24 05:44:47;;;;;;;36.33;23.27;;;;;;;2.34;75.12;100330.56;4979242;28;20039;-74
2021/03/24 05:47:28;;;;;;;37.63;20.45;;;;;;;2.29;74.50;100339.22;4970747;28;20125;-75
2021/03/24 05:50:23;;;;;;;42.30;22.90;;;;;;;2.25;74.92;100333.19;4973608;28;20031;-74
2021/03/24 05:53:19;;;;;;;36.65;22.13;;;;;;;2.25;75.18;100334.94;4973888;28;20112;-75
2021/03/24 05:56:15;;;;;;;44.03;24.27;;;;;;;2.32;75.04;100326.22;4971322;28;20105;-75
2021/03/24 05:58:50;;;;;;;31.08;19.40;;;;;;;2.47;75.11;100333.06;4969017;28;20741;-75
2021/03/24 06:01:26;;;;;;;41.58;23.23;;;;;;;2.52;74.67;100331.28;4970797;28;20046;-74
2021/03/24 06:03:56;;;;;;;39.45;22.63;;;;;;;2.56;74.47;100338.22;4970938;28;20027;-74
2021/03/24 06:07:18;;;;;;;38.10;21.77;;;;;;;2.56;74.15;100328.66;4985527;28;20043;-75
2021/03/24 06:10:08;;;;;;;37.70;23.00;;;;;;;2.64;74.28;100326.00;4928397;29;20062;-74
2021/03/24 06:13:01;;;;;;;40.15;23.13;;;;;;;2.77;73.74;100318.94;4929487;28;20047;-75
2021/03/24 06:15:38;;;;;;;40.03;22.50;;;;;;;2.89;73.86;100326.63;4965398;28;20526;-75
2021/03/24 06:18:19;;;;;;;34.78;21.88;;;;;;;3.04;73.29;100323.00;4970423;28;20039;-74
2021/03/24 06:20:56;;;;;;;44.50;23.83;;;;;;;3.15;73.18;100322.91;4971644;28;20062;-75
2021/03/24 06:23:57;;;;;;;38.60;22.13;;;;;;;3.27;72.43;100320.16;4971387;28;20039;-75
2021/03/24 06:26:45;;;;;;;38.83;20.90;;;;;;;3.42;72.07;100313.91;4966205;28;20129;-75
2021/03/24 06:29:26;;;;;;;34.72;21.63;;;;;;;3.61;72.16;100306.75;4971988;28;20053;-76
2021/03/24 06:32:02;;;;;;;41.40;23.20;;;;;;;3.88;71.16;100308.13;4972342;28;20564;-75
2021/03/24 06:34:50;;;;;;;37.55;22.45;;;;;;;4.16;70.40;100319.06;4972476;28;20042;-75
2021/03/24 06:37:37;;;;;;;32.95;20.08;;;;;;;4.50;69.74;100318.53;4971794;28;20034;-75
2021/03/24 06:40:28;;;;;;;37.30;20.08;;;;;;;4.80;68.48;100311.97;4977710;28;20105;-75
2021/03/24 06:43:02;;;;;;;29.48;17.65;;;;;;;5.22;68.20;100317.31;4984061;28;20678;-75
2021/03/24 06:45:46;;;;;;;33.72;21.20;;;;;;;5.64;66.54;100322.59;4982923;28;20054;-75
2021/03/24 06:48:31;;;;;;;42.58;22.73;;;;;;;6.06;64.33;100322.59;4981083;28;20031;-76
2021/03/24 06:51:14;;;;;;;43.35;20.15;;;;;;;6.58;62.76;100317.91;4978627;28;20517;-75
2021/03/24 06:53:39;;;;;;;41.70;19.42;;;;;;;6.95;62.15;100314.38;4980230;28;20522;-75
2021/03/24 06:56:37;;;;;;;39.85;21.10;;;;;;;7.27;61.18;100318.75;4982782;28;20039;-76
2021/03/24 06:59:06;;;;;;;33.20;19.48;;;;;;;7.55;60.17;100312.75;4981150;28;20058;-75
2021/03/24 07:01:40;;;;;;;37.65;22.10;;;;;;;7.86;59.44;100312.72;4980243;28;20110;-77
2021/03/24 07:04:36;;;;;;;37.17;19.98;;;;;;;8.16;57.69;100322.28;4982011;28;20104;-76
2021/03/24 07:07:24;;;;;;;35.70;20.35;;;;;;;8.47;57.19;100320.53;4978195;28;20130;-76
2021/03/24 07:10:24;;;;;;;39.55;22.67;;;;;;;8.71;55.86;100314.47;4982591;28;20031;-75
2021/03/24 07:13:08;;;;;;;52.53;23.88;;;;;;;8.95;55.90;100310.13;4982129;28;20042;-75
2021/03/24 07:15:50;;;;;;;41.28;21.27;;;;;;;9.22;55.20;100316.22;4978315;28;20054;-75
2021/03/24 07:18:46;;;;;;;34.83;21.10;;;;;;;9.60;53.72;100324.53;4978320;28;20035;-76
2021/03/24 07:21:39;;;;;;;31.00;19.77;;;;;;;9.93;52.64;100323.31;4965989;28;20034;-76
2021/03/24 07:24:25;;;;;;;35.42;20.63;;;;;;;10.19;50.89;100324.94;4975830;28;20046;-76
2021/03/24 07:27:24;;;;;;;39.05;23.10;;;;;;;10.30;50.40;100325.44;4975312;28;20070;-76
2021/03/24 07:30:14;;;;;;;41.63;21.52;;;;;;;10.54;50.00;100318.31;4975296;28;20069;-75
2021/03/24 07:33:10;;;;;;;36.83;23.08;;;;;;;10.92;48.45;100316.72;4972836;28;20528;-76
2021/03/24 07:35:46;;;;;;;38.78;24.48;;;;;;;11.23;48.35;100317.22;4953775;28;20042;-76
2021/03/24 07:38:46;;;;;;;40.42;25.38;;;;;;;11.46;47.26;100317.03;4973379;28;20034;-76
2021/03/24 07:41:48;;;;;;;41.75;24.65;;;;;;;11.87;46.43;100309.06;4973610;28;20037;-77
2021/03/24 07:44:37;;;;;;;36.92;24.20;;;;;;;12.43;45.07;100315.25;4973128;28;20081;-76
2021/03/24 07:47:50;;;;;;;38.72;24.70;;;;;;;13.32;43.12;100314.31;4953970;28;20031;-77
2021/03/24 07:50:25;;;;;;;45.25;26.60;;;;;;;13.69;41.81;100309.72;4970861;28;20038;-77
2021/03/24 07:53:05;;;;;;;47.80;27.00;;;;;;;13.47;41.72;100306.50;4973452;28;20039;-76
2021/03/24 07:55:43;;;;;;;37.25;25.33;;;;;;;13.28;42.62;100303.97;4973137;28;20500;-78
2021/03/24 07:58:38;;;;;;;39.38;25.80;;;;;;;13.71;41.75;100317.59;4992428;28;20038;-77
2021/03/24 08:01:17;;;;;;;39.20;25.73;;;;;;;13.94;40.77;100309.25;5010167;28;20088;-75
2021/03/24 08:04:13;;;;;;;35.60;24.10;;;;;;;14.23;40.70;100303.28;5011117;28;20509;-76
2021/03/24 08:06:57;;;;;;;42.25;24.75;;;;;;;14.66;39.59;100309.66;5009751;28;20042;-75
2021/03/24 08:09:40;;;;;;;40.53;24.77;;;;;;;14.79;38.51;100309.78;5005796;28;20048;-76
2021/03/24 08:12:31;;;;;;;41.72;26.80;;;;;;;14.95;38.47;100304.47;4988901;28;20683;-76
2021/03/24 08:15:02;;;;;;;38.25;26.17;;;;;;;15.28;37.88;100298.06;4986751;28;20591;-77
2021/03/24 08:17:49;;;;;;;40.38;27.65;;;;;;;15.54;37.13;100302.66;4992268;28;20038;-76
2021/03/24 08:20:22;;;;;;;40.92;27.92;;;;;;;15.84;37.08;100301.72;4991325;28;20038;-77
2021/03/24 08:23:09;;;;;;;36.83;27.00;;;;;;;16.28;36.07;100298.88;4992179;28;20378;-76
2021/03/24 08:25:38;;;;;;;46.55;30.35;;;;;;;16.25;35.25;100299.09;4987473;28;20053;-76
2021/03/24 08:28:19;;;;;;;37.85;26.80;;;;;;;16.77;34.87;100300.13;4992953;28;20068;-77
2021/03/24 08:31:11;;;;;;;37.15;30.02;;;;;;;17.06;33.76;100292.88;4992867;28;20057;-76
2021/03/24 08:34:09;;;;;;;42.25;30.48;;;;;;;16.89;33.70;100301.16;4993694;28;20027;-77
2021/03/24 08:36:59;;;;;;;47.80;29.67;;;;;;;16.95;34.17;100298.06;4991860;28;20062;-76
2021/03/24 08:39:46;;;;;;;45.25;29.23;;;;;;;17.31;33.72;100304.50;4991912;28;20049;-76
2021/03/24 08:42:56;;;;;;;46.50;27.77;;;;;;;17.48;33.45;100301.53;4992573;28;20398;-76
2021/03/24 08:45:30;;;;;;;43.88;30.98;;;;;;;17.97;32.38;100308.75;4932120;29;20603;-76
2021/03/24 08:47:59;;;;;;;43.53;30.20;;;;;;;18.04;32.22;100306.50;4932323;29;20118;-76
2021/03/24 08:50:29;;;;;;;41.20;29.45;;;;;;;17.84;32.26;100293.72;4962125;28;20057;-76
2021/03/24 08:53:05;;;;;;;42.42;27.00;;;;;;;17.88;32.41;100301.41;4990327;28;20034;-75
2021/03/24 08:55:49;;;;;;;40.78;29.75;;;;;;;18.09;31.88;100291.03;4991907;28;20121;-76
2021/03/24 08:58:23;;;;;;;39.35;27.00;;;;;;;18.12;31.97;100287.28;4993162;28;20528;-75
2021/03/24 09:01:28;;;;;;;41.30;27.88;;;;;;;18.31;32.03;100294.78;4992716;28;20046;-76
2021/03/24 09:03:56;;;;;;;41.15;27.38;;;;;;;18.28;31.97;100293.19;5007924;28;20057;-75
2021/03/24 09:06:49;;;;;;;39.97;28.42;;;;;;;18.43;31.53;100297.41;4992154;28;20038;-75
2021/03/24 09:09:23;;;;;;;39.60;26.73;;;;;;;18.81;30.84;100292.88;5006624;28;20516;-76
2021/03/24 09:12:20;;;;;;;35.10;25.20;;;;;;;18.90;30.75;100291.31;4989932;28;20046;-76
2021/03/24 09:14:55;;;;;;;42.95;26.30;;;;;;;18.86;30.52;100290.69;4990525;28;20313;-76
2021/03/24 09:17:37;;;;;;;37.03;23.40;;;;;;;18.87;30.49;100290.56;4991527;28;20045;-76
2021/03/24 09:20:41;;;;;;;40.90;23.80;;;;;;;19.13;30.25;100285.06;4992918;28;20042;-75
2021/03/24 09:23:44;;;;;;;30.40;24.17;;;;;;;19.80;29.16;100289.66;5006054;28;20046;-75
2021/03/24 09:27:00;;;;;;;34.80;23.48;;;;;;;20.11;28.85;100289.88;4988724;28;20031;-75
2021/03/24 09:29:47;;;;;;;29.35;22.08;;;;;;;20.07;28.73;100283.06;4972440;28;20049;-74
2021/03/24 09:32:39;;;;;;;30.17;21.73;;;;;;;19.70;29.20;100283.34;4989379;28;20517;-74
2021/03/24 09:35:16;;;;;;;32.05;22.67;;;;;;;19.96;29.05;100281.25;4989382;28;20066;-75
2021/03/24 09:37:46;;;;;;;32.75;22.90;;;;;;;19.99;28.69;100277.50;4990754;28;20038;-76
2021/03/24 09:40:24;;;;;;;29.48;22.88;;;;;;;19.75;29.01;100275.78;4990409;28;20030;-75
2021/03/24 09:42:53;;;;;;;32.50;23.35;;;;;;;19.92;28.68;100277.97;5006179;28;20030;-75
2021/03/24 09:45:30;;;;;;;27.70;21.45;;;;;;;20.15;28.54;100275.25;4990799;28;20096;-75
2021/03/24 09:48:10;;;;;;;32.40;22.33;;;;;;;20.43;28.21;100271.16;4991129;28;20038;-76
2021/03/24 09:50:40;;;;;;;31.42;22.20;;;;;;;20.63;28.05;100271.38;4990728;28;20038;-75
2021/03/24 09:53:05;;;;;;;29.15;20.45;;;;;;;20.66;27.99;100260.41;4991576;28;20050;-75
2021/03/24 09:55:44;;;;;;;27.65;19.77;;;;;;;21.12;27.29;100260.03;4990965;28;20049;-76
2021/03/24 09:58:49;;;;;;;32.45;21.27;;;;;;;21.38;27.04;100257.75;4991778;28;20130;-76
2021/03/24 10:01:20;;;;;;;28.45;20.63;;;;;;;21.20;27.15;100254.84;4977420;28;20030;-76
2021/03/24 10:03:49;;;;;;;30.73;20.98;;;;;;;20.84;27.69;100247.25;4992422;28;20042;-75
2021/03/24 10:06:22;;;;;;;30.48;21.30;;;;;;;21.21;27.20;100248.47;4991765;28;20755;-75
2021/03/24 10:09:11;;;;;;;29.15;20.05;;;;;;;21.55;26.90;100248.25;4990759;28;20034;-76
2021/03/24 10:12:06;;;;;;;28.08;20.48;;;;;;;21.82;26.38;100238.75;4959509;28;20057;-75
2021/03/24 10:14:54;;;;;;;30.20;21.33;;;;;;;22.12;26.12;100240.50;4991193;28;20038;-76
2021/03/24 10:17:26;;;;;;;27.08;21.08;;;;;;;22.00;25.66;100244.31;4994803;28;20274;-76
2021/03/24 10:20:16;;;;;;;28.42;20.65;;;;;;;21.94;25.81;100236.81;4994738;28;20486;-78
2021/03/24 10:22:46;;;;;;;30.45;22.95;;;;;;;21.74;26.06;100238.59;4963530;28;20035;-77
2021/03/24 10:25:23;;;;;;;28.02;19.80;;;;;;;21.70;26.17;100234.47;4995040;28;20074;-76
2021/03/24 10:27:52;;;;;;;32.05;20.45;;;;;;;21.94;25.90;100237.66;5010130;28;20494;-77
2021/03/24 10:30:25;;;;;;;34.58;19.38;;;;;;;22.02;25.83;100235.13;4996546;28;20076;-76
2021/03/24 10:33:14;;;;;;;33.65;20.67;;;;;;;21.95;25.50;100239.34;5001260;28;20069;-76
2021/03/24 10:35:42;;;;;;;27.20;19.10;;;;;;;21.34;26.55;100234.88;4995617;28;20387;-75
2021/03/24 10:38:10;;;;;;;27.92;18.38;;;;;;;21.84;25.68;100231.41;4995257;28;20065;-75
2021/03/24 10:40:39;;;;;;;59.38;22.42;;;;;;;21.90;25.12;100228.16;4993274;28;20038;-75
2021/03/24 10:43:15;;;;;;;28.27;17.70;;;;;;;21.63;25.41;100234.16;4995331;28;20062;-75
2021/03/24 10:45:47;;;;;;;25.42;15.88;;;;;;;21.07;26.06;100230.06;4995479;28;20458;-76
2021/03/24 10:48:24;;;;;;;34.03;17.02;;;;;;;20.60;26.84;100221.59;4996699;28;20038;-75
2021/03/24 10:51:12;;;;;;;24.48;17.13;;;;;;;20.18;27.53;100232.16;5000788;28;20042;-75
2021/03/24 10:53:37;;;;;;;23.77;16.42;;;;;;;19.67;28.14;100222.03;4992139;28;20110;-75
2021/03/24 10:56:06;;;;;;;25.25;17.35;;;;;;;19.13;28.64;100220.94;4991354;28;20101;-74
2021/03/24 10:58:48;;;;;;;30.88;18.77;;;;;;;18.73;29.46;100223.09;5006818;28;20045;-75
2021/03/24 11:01:32;;;;;;;22.08;16.48;;;;;;;18.40;29.25;100219.34;5009865;28;20038;-75
2021/03/24 11:04:45;;;;;;;24.63;16.40;;;;;;;18.10;29.76;100217.16;5004613;28;20121;-75
2021/03/24 11:07:26;;;;;;;73.47;22.52;;;;;;;17.92;31.11;100209.53;5011042;28;20069;-76
2021/03/24 11:10:05;;;;;;;27.88;16.83;;;;;;;17.58;31.45;100211.94;5010903;28;20049;-76
2021/03/24 11:12:40;;;;;;;29.40;17.50;;;;;;;17.29;31.66;100219.34;4994602;28;20494;-76
2021/03/24 11:15:21;;;;;;;28.83;16.52;;;;;;;17.19;32.19;100215.59;4994147;28;20117;-75
2021/03/24 11:17:56;;;;;;;27.02;17.17;;;;;;;16.96;33.83;100222.53;4994499;28;20034;-75
2021/03/24 11:20:39;;;;;;;29.52;16.85;;;;;;;16.92;33.57;100218.38;4995056;28;20097;-75
2021/03/24 11:23:10;;;;;;;26.27;16.05;;;;;;;16.72;33.56;100209.06;4991083;28;20574;-75
2021/03/24 11:25:42;;;;;;;21.98;14.65;;;;;;;16.82;33.90;100204.00;4994045;28;20398;-76
2021/03/24 11:28:43;;;;;;;29.05;16.35;;;;;;;16.51;33.96;100204.25;4991866;28;20052;-75
2021/03/24 11:31:14;;;;;;;23.05;15.02;;;;;;;16.59;33.35;100210.81;4988691;28;20562;-77
2021/03/24 11:33:48;;;;;;;19.15;12.95;;;;;;;16.51;33.61;100209.56;4994259;28;20116;-75
2021/03/24 11:36:31;;;;;;;23.90;15.32;;;;;;;16.51;33.63;100206.03;5009439;28;20074;-75
2021/03/24 11:39:21;;;;;;;22.83;14.15;;;;;;;16.58;33.90;100207.31;4994186;28;20513;-74
2021/03/24 11:41:47;;;;;;;99.82;19.13;;;;;;;16.35;34.31;100200.88;4995977;28;20072;-76
2021/03/24 11:44:22;;;;;;;34.40;15.27;;;;;;;16.36;34.23;100201.75;4994431;28;20473;-76
2021/03/24 11:46:47;;;;;;;28.05;15.50;;;;;;;16.42;34.37;100199.53;4994600;28;20030;-75
2021/03/24 11:49:23;;;;;;;26.83;15.45;;;;;;;16.53;34.31;100196.13;5008757;28;20039;-75
2021/03/24 11:51:51;;;;;;;19.63;13.40;;;;;;;16.43;33.31;100201.22;4993450;28;20039;-75
2021/03/24 11:54:19;;;;;;;20.35;13.80;;;;;;;16.45;33.30;100201.97;4992506;28;20050;-75
2021/03/24 11:57:24;;;;;;;22.75;13.68;;;;;;;16.37;33.22;100192.81;4991359;28;20062;-75